createdAt,value
2022-12-29T00:01:28.821Z,17.50
2022-12-29T00:03:59.276Z,17.02
2022-12-29T00:06:28.128Z,17.02
2022-12-29T00:08:57.688Z,15.38
2022-12-29T00:11:28.882Z,16.98
2022-12-29T00:14:14.714Z,16.35
2022-12-29T00:16:45.089Z,15.82
2022-12-29T00:19:28.122Z,16.92
2022-12-29T00:22:14.263Z,16.55
2022-12-29T00:25:01.344Z,16.50
2022-12-29T00:27:48.560Z,18.05
2022-12-29T00:30:36.360Z,18.88
2022-12-29T00:33:29.228Z,19.35
2022-12-29T00:36:02.710Z,19.25
2022-12-29T00:38:50.420Z,18.63
2022-12-29T00:41:37.545Z,19.63
2022-12-29T00:44:11.288Z,19.60
2022-12-29T00:46:40.908Z,19.92
2022-12-29T00:49:27.864Z,19.48
2022-12-29T00:51:57.541Z,20.60
2022-12-29T00:54:26.586Z,21.55
2022-12-29T00:56:56.978Z,21.60
2022-12-29T00:59:26.132Z,19.23
2022-12-29T01:01:55.707Z,21.88
2022-12-29T01:04:25.365Z,20.88
2022-12-29T01:06:53.692Z,21.15
2022-12-29T01:09:40.038Z,21.98
2022-12-29T01:12:11.383Z,20.35
2022-12-29T01:14:41.427Z,20.00
2022-12-29T01:17:09.626Z,19.00
2022-12-29T01:19:37.947Z,18.33
2022-12-29T01:22:06.346Z,18.40
2022-12-29T01:24:35.444Z,17.38
2022-12-29T01:27:03.810Z,17.63
2022-12-29T01:29:33.298Z,18.50
2022-12-29T01:32:01.704Z,18.40
2022-12-29T01:34:29.866Z,16.98
2022-12-29T01:36:58.251Z,15.80
2022-12-29T01:39:26.384Z,15.95
2022-12-29T01:41:54.820Z,15.73
2022-12-29T01:44:54.357Z,15.80
2022-12-29T01:47:32.723Z,15.90
2022-12-29T01:50:07.426Z,16.17
2022-12-29T01:52:39.759Z,16.30
2022-12-29T01:55:09.812Z,15.80
2022-12-29T01:57:42.978Z,15.18
2022-12-29T02:00:15.584Z,16.35
2022-12-29T02:02:47.033Z,15.18
2022-12-29T02:05:22.135Z,14.80
2022-12-29T02:07:52.120Z,16.48
2022-12-29T02:10:22.838Z,14.32
2022-12-29T02:12:51.486Z,13.40
2022-12-29T02:15:27.520Z,13.32
2022-12-29T02:18:09.798Z,12.18
2022-12-29T02:21:13.472Z,12.68
2022-12-29T02:24:19.023Z,11.65
2022-12-29T02:27:03.348Z,10.48
2022-12-29T02:30:09.861Z,9.70
2022-12-29T02:32:52.124Z,8.85
2022-12-29T02:35:31.816Z,8.98
2022-12-29T02:38:07.499Z,8.45
2022-12-29T02:40:41.421Z,7.65
2022-12-29T02:43:20.965Z,7.20
2022-12-29T02:45:59.350Z,6.85
2022-12-29T02:48:40.153Z,6.40
2022-12-29T02:51:13.305Z,6.47
2022-12-29T02:53:59.953Z,6.25
2022-12-29T02:56:28.520Z,6.30
2022-12-29T02:58:56.794Z,5.95
2022-12-29T03:02:01.784Z,5.78
2022-12-29T03:04:41.849Z,6.25
2022-12-29T03:07:19.791Z,5.55
2022-12-29T03:09:56.718Z,5.35
2022-12-29T03:12:51.124Z,4.90
2022-12-29T03:15:42.658Z,4.35
2022-12-29T03:18:18.060Z,4.57
2022-12-29T03:20:55.218Z,4.15
2022-12-29T03:23:26.820Z,3.30
2022-12-29T03:25:59.508Z,2.97
2022-12-29T03:28:33.118Z,2.45
2022-12-29T03:33:32.674Z,2.08
2022-12-29T03:36:07.677Z,2.03
2022-12-29T03:38:40.490Z,2.17
2022-12-29T03:41:12.485Z,1.80
2022-12-29T03:43:40.919Z,1.90
2022-12-29T03:46:09.042Z,2.10
2022-12-29T03:48:38.032Z,1.90
2022-12-29T03:51:07.609Z,2.42
2022-12-29T03:53:35.843Z,2.40
2022-12-29T03:56:04.922Z,2.20
2022-12-29T03:58:33.904Z,2.00
2022-12-29T04:01:08.714Z,2.25
2022-12-29T04:03:39.320Z,2.30
2022-12-29T04:06:09.786Z,2.20
2022-12-29T04:08:47.757Z,2.38
2022-12-29T04:11:16.187Z,2.85
2022-12-29T04:13:44.419Z,3.67
2022-12-29T04:16:17.134Z,3.60
2022-12-29T04:18:45.515Z,4.50
2022-12-29T04:21:15.884Z,3.95
2022-12-29T04:23:46.543Z,4.40
2022-12-29T04:26:15.759Z,5.00
2022-12-29T04:28:54.609Z,5.30
2022-12-29T04:31:35.288Z,4.88
2022-12-29T04:34:04.159Z,5.47
2022-12-29T04:36:34.903Z,5.28
2022-12-29T04:39:03.174Z,5.30
2022-12-29T04:41:31.743Z,5.22
2022-12-29T04:44:00.064Z,5.25
2022-12-29T04:46:58.658Z,5.07
2022-12-29T04:49:53.126Z,4.68
2022-12-29T04:52:43.809Z,4.63
2022-12-29T04:55:14.753Z,4.35
2022-12-29T04:57:43.229Z,4.20
2022-12-29T05:00:16.156Z,4.15
2022-12-29T05:02:44.859Z,4.00
2022-12-29T05:05:13.395Z,3.85
2022-12-29T05:07:46.616Z,3.70
2022-12-29T05:10:14.770Z,2.95
2022-12-29T05:12:43.210Z,3.10
2022-12-29T05:15:12.736Z,3.00
2022-12-29T05:17:40.950Z,3.22
2022-12-29T05:20:11.498Z,3.60
2022-12-29T05:22:40.572Z,2.85
2022-12-29T05:25:11.165Z,3.22
2022-12-29T05:27:52.308Z,2.08
2022-12-29T05:30:41.945Z,1.90
2022-12-29T05:33:12.479Z,1.30
2022-12-29T05:35:41.272Z,1.35
2022-12-29T05:38:09.433Z,1.10
2022-12-29T05:40:39.136Z,1.30
2022-12-29T05:43:16.150Z,1.80
2022-12-29T05:46:07.496Z,2.33
2022-12-29T05:48:49.020Z,3.10
2022-12-29T05:51:46.636Z,3.80
2022-12-29T05:54:15.069Z,5.07
2022-12-29T05:56:44.811Z,6.13
2022-12-29T05:59:13.663Z,7.85
2022-12-29T06:01:42.492Z,7.95
2022-12-29T06:04:10.669Z,8.68
2022-12-29T06:06:39.996Z,8.68
2022-12-29T06:09:12.571Z,8.77
2022-12-29T06:11:40.991Z,9.27
2022-12-29T06:14:11.768Z,8.55
2022-12-29T06:16:40.205Z,8.75
2022-12-29T06:19:12.176Z,8.60
2022-12-29T06:21:40.542Z,8.82
2022-12-29T06:24:08.989Z,8.82
2022-12-29T06:26:38.768Z,8.95
2022-12-29T06:29:07.924Z,9.27
2022-12-29T06:31:37.927Z,9.50
2022-12-29T06:34:08.449Z,9.90
2022-12-29T06:36:38.183Z,9.30
2022-12-29T06:39:06.691Z,9.00
2022-12-29T06:41:35.754Z,9.02
2022-12-29T06:44:22.606Z,8.80
2022-12-29T06:46:59.835Z,8.95
2022-12-29T06:49:28.137Z,8.30
2022-12-29T06:51:56.343Z,8.23
2022-12-29T06:54:24.671Z,10.30
2022-12-29T06:56:52.877Z,9.43
2022-12-29T06:59:20.975Z,9.48
2022-12-29T07:01:51.414Z,9.23
2022-12-29T07:04:21.293Z,9.75
2022-12-29T07:06:49.459Z,8.90
2022-12-29T07:09:17.876Z,9.57
2022-12-29T07:11:45.884Z,10.65
2022-12-29T07:14:14.614Z,8.77
2022-12-29T07:16:42.999Z,8.25
2022-12-29T07:19:11.388Z,7.90
2022-12-29T07:21:46.920Z,6.43
2022-12-29T07:24:15.190Z,5.70
2022-12-29T07:26:43.448Z,5.82
2022-12-29T07:29:11.670Z,5.10
2022-12-29T07:31:39.731Z,4.82
2022-12-29T07:34:08.076Z,4.72
2022-12-29T07:36:36.177Z,4.70
2022-12-29T07:39:06.182Z,4.97
2022-12-29T07:41:35.696Z,4.65
2022-12-29T07:44:04.621Z,3.80
2022-12-29T07:46:56.705Z,3.63
2022-12-29T07:49:27.572Z,3.90
2022-12-29T07:51:55.816Z,3.78
2022-12-29T07:54:25.828Z,3.67
2022-12-29T07:56:55.205Z,3.50
2022-12-29T07:59:23.507Z,3.70
2022-12-29T08:01:52.781Z,3.53
2022-12-29T08:04:23.863Z,3.60
2022-12-29T08:06:52.968Z,3.60
2022-12-29T08:09:24.168Z,2.55
2022-12-29T08:11:54.284Z,2.72
2022-12-29T08:14:22.716Z,2.90
2022-12-29T08:16:51.615Z,2.60
2022-12-29T08:19:19.722Z,2.75
2022-12-29T08:21:48.078Z,2.60
2022-12-29T08:24:16.420Z,2.40
2022-12-29T08:26:44.509Z,2.80
2022-12-29T08:29:14.246Z,2.35
2022-12-29T08:31:42.373Z,2.83
2022-12-29T08:34:10.716Z,2.67
2022-12-29T08:36:38.796Z,2.58
2022-12-29T08:39:07.536Z,2.65
2022-12-29T08:41:35.613Z,2.47
2022-12-29T08:44:04.292Z,2.85
2022-12-29T08:46:34.321Z,2.67
2022-12-29T08:49:02.983Z,2.85
2022-12-29T08:51:31.077Z,2.58
2022-12-29T08:53:59.493Z,3.47
2022-12-29T08:56:28.008Z,2.92
2022-12-29T08:58:58.714Z,3.40
2022-12-29T09:01:29.583Z,5.30
2022-12-29T09:04:17.067Z,4.90
2022-12-29T09:06:46.889Z,3.17
2022-12-29T09:09:15.664Z,1.60
2022-12-29T09:11:44.285Z,1.50
2022-12-29T09:14:12.645Z,1.98
2022-12-29T09:16:55.380Z,2.80
2022-12-29T09:19:24.830Z,1.50
2022-12-29T09:21:53.149Z,1.75
2022-12-29T09:24:21.211Z,1.70
2022-12-29T09:26:49.616Z,1.90
2022-12-29T09:29:17.648Z,1.38
2022-12-29T09:31:46.098Z,1.65
2022-12-29T09:34:14.210Z,1.33
2022-12-29T09:36:43.912Z,1.63
2022-12-29T09:39:11.986Z,1.67
2022-12-29T09:41:45.856Z,1.73
2022-12-29T09:44:22.812Z,1.35
2022-12-29T09:46:53.360Z,1.15
2022-12-29T09:49:28.518Z,1.60
2022-12-29T09:52:04.349Z,1.42
2022-12-29T09:54:54.976Z,1.77
2022-12-29T09:57:31.925Z,1.60
2022-12-29T10:00:05.881Z,1.77
2022-12-29T10:02:43.003Z,2.60
2022-12-29T10:05:22.126Z,1.38
2022-12-29T10:08:03.591Z,1.20
2022-12-29T10:10:40.082Z,1.25
2022-12-29T10:13:24.096Z,1.33
2022-12-29T10:16:03.725Z,1.60
2022-12-29T10:18:59.468Z,1.27
2022-12-29T10:21:35.503Z,1.67
2022-12-29T10:24:09.522Z,1.40
2022-12-29T10:26:41.709Z,1.23
2022-12-29T10:29:17.158Z,0.88
2022-12-29T10:31:48.677Z,1.08
2022-12-29T10:34:22.874Z,0.80
2022-12-29T10:36:54.890Z,0.57
2022-12-29T10:39:32.382Z,0.55
2022-12-29T10:42:10.789Z,0.65
2022-12-29T10:44:39.524Z,0.55
2022-12-29T10:47:14.274Z,1.05
2022-12-29T10:52:13.811Z,0.65
2022-12-29T10:54:49.982Z,0.70
2022-12-29T10:57:29.731Z,0.98
2022-12-29T10:59:58.032Z,1.00
2022-12-29T11:02:45.789Z,1.00
2022-12-29T11:05:24.603Z,1.02
2022-12-29T11:07:58.505Z,1.60
2022-12-29T11:10:38.170Z,1.70
2022-12-29T11:13:13.077Z,1.20
2022-12-29T11:15:42.933Z,1.20
2022-12-29T11:18:23.267Z,1.17
2022-12-29T11:20:52.930Z,1.52
2022-12-29T11:23:35.182Z,1.50
2022-12-29T11:26:17.076Z,1.33
2022-12-29T11:28:47.466Z,1.35
2022-12-29T11:31:19.455Z,1.63
2022-12-29T11:33:48.828Z,1.45
2022-12-29T11:36:22.409Z,2.03
2022-12-29T11:38:52.986Z,1.60
2022-12-29T11:41:25.802Z,1.98
2022-12-29T11:43:55.052Z,1.52
2022-12-29T11:46:26.278Z,2.10
2022-12-29T11:48:59.348Z,1.25
2022-12-29T11:51:30.160Z,1.88
2022-12-29T11:54:02.016Z,1.70
2022-12-29T11:56:41.082Z,1.80
2022-12-29T11:59:42.992Z,1.80
2022-12-29T12:02:37.260Z,1.40
2022-12-29T12:05:22.250Z,1.45
2022-12-29T12:07:56.055Z,1.27
2022-12-29T12:10:29.256Z,1.30
2022-12-29T12:13:19.309Z,1.50
2022-12-29T12:15:56.820Z,1.60
2022-12-29T12:18:36.007Z,1.33
2022-12-29T12:21:12.180Z,1.67
2022-12-29T12:23:55.566Z,1.55
2022-12-29T12:26:29.526Z,1.63
2022-12-29T12:29:03.061Z,1.45
2022-12-29T12:31:44.274Z,1.52
2022-12-29T12:34:18.571Z,1.30
2022-12-29T12:37:07.930Z,1.50
2022-12-29T12:39:46.440Z,2.08
2022-12-29T12:42:37.460Z,1.65
2022-12-29T12:45:34.525Z,1.73
2022-12-29T12:48:16.089Z,1.50
2022-12-29T12:50:56.189Z,1.77
2022-12-29T12:53:39.289Z,1.67
2022-12-29T12:56:39.280Z,1.50
2022-12-29T12:59:15.556Z,1.25
2022-12-29T13:01:55.710Z,1.27
2022-12-29T13:04:59.540Z,1.23
2022-12-29T13:07:39.613Z,1.58
2022-12-29T13:10:37.159Z,1.15
2022-12-29T13:13:33.156Z,1.02
2022-12-29T13:16:14.022Z,1.15
2022-12-29T13:18:53.807Z,1.33
2022-12-29T13:21:33.907Z,1.65
2022-12-29T13:24:07.240Z,1.23
2022-12-29T13:26:41.668Z,0.80
2022-12-29T13:31:55.641Z,1.27
2022-12-29T13:34:37.107Z,1.00
2022-12-29T13:37:10.999Z,1.30
2022-12-29T13:39:42.871Z,1.30
2022-12-29T13:42:13.619Z,1.42
2022-12-29T13:44:46.760Z,1.10
2022-12-29T13:47:28.586Z,2.17
2022-12-29T13:50:00.576Z,1.25
2022-12-29T13:52:35.002Z,1.13
2022-12-29T13:55:20.489Z,0.90
2022-12-29T13:57:54.278Z,1.85
2022-12-29T14:00:24.004Z,1.65
2022-12-29T14:03:29.867Z,1.70
2022-12-29T14:06:17.176Z,1.88
2022-12-29T14:08:46.157Z,1.58
2022-12-29T14:11:16.983Z,1.15
2022-12-29T14:13:47.425Z,2.92
2022-12-29T14:16:35.551Z,1.38
2022-12-29T14:19:13.661Z,1.35
2022-12-29T14:21:52.109Z,1.50
2022-12-29T14:24:43.211Z,1.40
2022-12-29T14:27:46.609Z,1.50
2022-12-29T14:31:00.872Z,1.23
2022-12-29T14:33:31.700Z,1.60
2022-12-29T14:36:20.918Z,1.40
2022-12-29T14:38:50.787Z,1.25
2022-12-29T14:41:26.689Z,1.60
2022-12-29T14:44:01.138Z,1.70
2022-12-29T14:46:58.056Z,1.30
2022-12-29T14:49:29.666Z,1.83
2022-12-29T14:52:08.336Z,1.80
2022-12-29T14:54:53.785Z,1.58
2022-12-29T14:57:29.417Z,1.40
2022-12-29T15:00:03.386Z,1.85
2022-12-29T15:02:39.750Z,2.00
2022-12-29T15:05:24.693Z,2.08
2022-12-29T15:07:53.507Z,1.75
2022-12-29T15:10:24.532Z,2.10
2022-12-29T15:12:55.976Z,1.77
2022-12-29T15:15:27.253Z,2.03
2022-12-29T15:17:55.908Z,2.30
2022-12-29T15:20:29.430Z,1.65
2022-12-29T15:23:00.583Z,2.25
2022-12-29T15:25:30.493Z,2.08
2022-12-29T15:28:03.064Z,2.80
2022-12-29T15:30:31.398Z,2.00
2022-12-29T15:32:59.880Z,1.77
2022-12-29T15:35:34.294Z,1.70
2022-12-29T15:38:14.206Z,2.22
2022-12-29T15:40:46.610Z,2.03
2022-12-29T15:43:35.379Z,1.70
2022-12-29T15:46:04.260Z,2.28
2022-12-29T15:48:34.604Z,2.40
2022-12-29T15:51:04.783Z,2.28
2022-12-29T15:53:35.245Z,2.35
2022-12-29T15:56:13.041Z,2.17
2022-12-29T15:58:49.443Z,2.92
2022-12-29T16:01:30.957Z,2.20
2022-12-29T16:04:00.962Z,2.20
2022-12-29T16:06:37.487Z,1.98
2022-12-29T16:09:07.710Z,2.08
2022-12-29T16:11:39.959Z,2.08
2022-12-29T16:14:12.202Z,2.58
2022-12-29T16:16:45.863Z,2.33
2022-12-29T16:19:17.026Z,2.60
2022-12-29T16:21:51.701Z,2.45
2022-12-29T16:24:22.448Z,3.15
2022-12-29T16:27:01.559Z,2.70
2022-12-29T16:29:32.371Z,2.67
2022-12-29T16:32:04.180Z,2.50
2022-12-29T16:34:35.873Z,3.00
2022-12-29T16:37:06.836Z,2.78
2022-12-29T16:39:41.970Z,2.95
2022-12-29T16:46:19.957Z,2.80
2022-12-29T16:48:51.903Z,2.80
2022-12-29T16:51:31.899Z,2.67
2022-12-29T16:54:04.295Z,2.95
2022-12-29T16:56:37.974Z,3.22
2022-12-29T16:59:18.909Z,3.10
2022-12-29T17:01:55.234Z,3.03
2022-12-29T17:04:26.321Z,3.33
2022-12-29T17:07:20.087Z,3.22
2022-12-29T17:09:54.134Z,3.70
2022-12-29T17:12:26.004Z,3.42
2022-12-29T17:14:56.498Z,4.00
2022-12-29T17:17:35.471Z,3.67
2022-12-29T17:20:07.205Z,4.35
2022-12-29T17:22:36.512Z,3.90
2022-12-29T17:25:04.850Z,4.93
2022-12-29T17:27:38.585Z,4.25
2022-12-29T17:30:12.678Z,4.57
2022-12-29T17:35:15.733Z,4.32
2022-12-29T17:37:44.039Z,4.67
2022-12-29T17:40:16.786Z,5.40
2022-12-29T17:42:46.536Z,5.45
2022-12-29T17:45:17.221Z,4.88
2022-12-29T17:47:46.918Z,4.68
2022-12-29T17:50:16.996Z,4.30
2022-12-29T17:52:47.820Z,4.88
2022-12-29T17:55:18.622Z,4.50
2022-12-29T17:57:47.312Z,4.50
2022-12-29T18:00:20.156Z,4.38
2022-12-29T18:02:50.483Z,5.20
2022-12-29T18:05:21.942Z,5.00
2022-12-29T18:07:50.778Z,4.15
2022-12-29T18:10:18.982Z,4.35
2022-12-29T18:12:49.232Z,5.38
2022-12-29T18:15:22.532Z,3.70
2022-12-29T18:17:58.040Z,4.18
2022-12-29T18:20:26.263Z,4.35
2022-12-29T18:22:54.310Z,3.38
2022-12-29T18:25:27.959Z,3.17
2022-12-29T18:27:56.162Z,3.40
2022-12-29T18:30:24.718Z,2.97
2022-12-29T18:32:54.700Z,3.42
2022-12-29T18:35:27.847Z,2.70
2022-12-29T18:37:56.226Z,2.87
2022-12-29T18:40:24.414Z,3.70
2022-12-29T18:42:52.700Z,2.60
2022-12-29T18:45:23.146Z,2.45
2022-12-29T18:47:51.709Z,1.88
2022-12-29T18:50:21.162Z,2.00
2022-12-29T18:52:49.758Z,1.85
2022-12-29T18:55:20.171Z,1.60
2022-12-29T18:57:48.356Z,1.30
2022-12-29T19:00:18.871Z,1.40
2022-12-29T19:02:47.481Z,1.70
2022-12-29T19:05:27.618Z,1.20
2022-12-29T19:07:56.271Z,1.58
2022-12-29T19:10:26.339Z,1.52
2022-12-29T19:12:54.551Z,1.75
2022-12-29T19:15:25.647Z,1.67
2022-12-29T19:18:32.877Z,2.22
2022-12-29T19:20:46.020Z,2.50
2022-12-29T19:23:16.098Z,2.90
2022-12-29T19:25:45.398Z,2.70
2022-12-29T19:28:18.772Z,3.08
2022-12-29T19:30:51.896Z,2.90
2022-12-29T19:33:21.494Z,3.10
2022-12-29T19:35:52.135Z,2.97
2022-12-29T19:38:21.175Z,3.67
2022-12-29T19:40:51.451Z,3.97
2022-12-29T19:43:20.009Z,4.38
2022-12-29T19:45:48.215Z,4.75
2022-12-29T19:48:19.863Z,4.85
2022-12-29T19:50:48.636Z,4.07
2022-12-29T19:53:18.202Z,2.80
2022-12-29T19:55:48.674Z,1.92
2022-12-29T19:58:16.753Z,1.88
2022-12-29T20:00:45.213Z,2.13
2022-12-29T20:03:13.398Z,3.00
2022-12-29T20:05:41.795Z,2.10
2022-12-29T20:08:09.976Z,2.05
2022-12-29T20:10:39.516Z,2.60
2022-12-29T20:13:07.634Z,2.80
2022-12-29T20:15:35.729Z,2.75
2022-12-29T20:18:13.591Z,3.05
2022-12-29T20:20:42.771Z,2.92
2022-12-29T20:23:11.266Z,3.58
2022-12-29T20:25:45.689Z,4.00
2022-12-29T20:28:17.126Z,4.45
2022-12-29T20:30:45.586Z,4.80
2022-12-29T20:33:13.890Z,5.07
2022-12-29T20:35:42.154Z,5.78
2022-12-29T20:38:10.335Z,5.97
2022-12-29T20:40:46.257Z,6.70
2022-12-29T20:43:16.150Z,6.07
2022-12-29T20:45:45.000Z,6.45
2022-12-29T20:48:13.144Z,6.20
2022-12-29T20:50:41.407Z,7.50
2022-12-29T20:53:09.809Z,7.47
2022-12-29T20:55:40.823Z,7.30
2022-12-29T20:58:23.658Z,9.00
2022-12-29T21:00:52.820Z,10.65
2022-12-29T21:03:20.992Z,9.90
2022-12-29T21:05:49.261Z,10.80
2022-12-29T21:08:17.404Z,9.20
2022-12-29T21:10:47.508Z,8.85
2022-12-29T21:13:17.740Z,10.00
2022-12-29T21:15:47.229Z,10.20
2022-12-29T21:18:15.765Z,9.68
2022-12-29T21:20:44.197Z,8.30
2022-12-29T21:23:12.278Z,8.27
2022-12-29T21:25:44.976Z,7.95
2022-12-29T21:28:13.203Z,8.02
2022-12-29T21:30:43.118Z,7.40
2022-12-29T21:33:11.484Z,8.05
2022-12-29T21:35:39.874Z,7.47
2022-12-29T21:38:08.473Z,7.63
2022-12-29T21:40:37.972Z,7.80
2022-12-29T21:43:06.847Z,7.45
2022-12-29T21:45:34.417Z,7.03
2022-12-29T21:48:25.131Z,7.55
2022-12-29T21:51:12.287Z,7.25
2022-12-29T21:53:42.615Z,7.45
2022-12-29T21:56:13.076Z,8.30
2022-12-29T21:59:00.484Z,9.20
2022-12-29T22:01:47.796Z,10.30
2022-12-29T22:04:37.302Z,10.00
2022-12-29T22:07:25.429Z,11.30
2022-12-29T22:10:11.056Z,12.27
2022-12-29T22:12:56.973Z,12.70
2022-12-29T22:15:25.112Z,11.85
2022-12-29T22:17:55.534Z,12.13
2022-12-29T22:20:27.084Z,12.20
2022-12-29T22:22:55.448Z,9.35
2022-12-29T22:25:24.051Z,8.40
2022-12-29T22:27:58.626Z,8.15
2022-12-29T22:30:27.528Z,8.63
2022-12-29T22:32:56.594Z,9.43
2022-12-29T22:35:26.389Z,9.50
2022-12-29T22:37:54.647Z,9.68
2022-12-29T22:40:22.814Z,10.93
2022-12-29T22:42:50.919Z,10.27
2022-12-29T22:45:19.294Z,10.63
2022-12-29T22:47:47.377Z,11.07
2022-12-29T22:50:15.489Z,11.85
2022-12-29T22:52:45.104Z,11.77
2022-12-29T22:55:13.210Z,11.15
2022-12-29T22:57:41.521Z,12.75
2022-12-29T23:00:10.625Z,11.10
2022-12-29T23:02:39.142Z,11.13
2022-12-29T23:05:08.027Z,10.95
2022-12-29T23:07:36.741Z,11.18
2022-12-29T23:10:07.261Z,12.77
2022-12-29T23:12:35.560Z,10.35
2022-12-29T23:15:03.688Z,11.02
2022-12-29T23:17:32.062Z,10.88
2022-12-29T23:20:00.203Z,12.07
2022-12-29T23:22:28.361Z,10.88
2022-12-29T23:24:56.661Z,11.43
2022-12-29T23:27:26.155Z,11.82
2022-12-29T23:29:54.455Z,11.00
2022-12-29T23:32:22.880Z,10.38
2022-12-29T23:34:50.907Z,10.68
2022-12-29T23:37:19.266Z,10.50
2022-12-29T23:39:47.287Z,10.38
2022-12-29T23:42:15.424Z,10.10
2022-12-29T23:44:45.118Z,9.70
2022-12-29T23:47:13.616Z,9.85
2022-12-29T23:49:41.847Z,9.70
2022-12-29T23:52:09.899Z,10.10
2022-12-29T23:54:38.016Z,10.90
2022-12-29T23:57:06.214Z,11.45
2022-12-29T23:59:34.383Z,12.73
